Time;durP1;ratioP1;P1;durP2;ratioP2;P2;SDS_P1;SDS_P2;PMS_P1;PMS_P2;Temp;Humidity;BMP_temperature;BMP_pressure;BME280_temperature;BME280_humidity;BME280_pressure;Samples;Min_cycle;Max_cycle;Signal;HPM_P1;HPM_P2
2021/09/14 00:02:23;;;;;;;11.23;5.30;;;;;;;;;;5109454;28;20073;-81
2021/09/14 00:04:50;;;;;;;10.15;5.00;;;;;;;;;;5111492;28;20091;-83
2021/09/14 00:07:17;;;;;;;9.75;4.50;;;;;;;;;;5104076;28;20048;-81
2021/09/14 00:09:44;;;;;;;12.52;4.90;;;;;;;;;;5111361;28;20055;-82
2021/09/14 00:12:10;;;;;;;9.23;4.70;;;;;;;;;;5105842;28;20047;-82
2021/09/14 00:14:37;;;;;;;14.07;5.00;;;;;;;;;;5109105;28;20481;-81
2021/09/14 00:17:04;;;;;;;13.48;4.90;;;;;;;;;;5107093;28;20048;-81
2021/09/14 00:19:31;;;;;;;10.15;4.63;;;;;;;;;;5115775;28;20040;-81
2021/09/14 00:21:57;;;;;;;12.15;5.68;;;;;;;;;;5116687;28;20040;-81
2021/09/14 00:24:24;;;;;;;9.88;5.15;;;;;;;;;;5111800;28;20078;-81
2021/09/14 00:26:51;;;;;;;10.18;5.20;;;;;;;;;;5110391;28;20059;-81
2021/09/14 00:29:21;;;;;;;8.75;5.00;;;;;;;;;;5109600;28;20054;-81
2021/09/14 00:31:47;;;;;;;10.05;4.78;;;;;;;;;;5117297;28;20051;-82
2021/09/14 00:34:14;;;;;;;14.02;5.57;;;;;;;;;;5106493;28;20056;-83
2021/09/14 00:36:41;;;;;;;12.00;5.88;;;;;;;;;;5103944;28;20051;-82
2021/09/14 00:39:08;;;;;;;10.68;5.38;;;;;;;;;;5105082;28;20051;-82
2021/09/14 00:41:34;;;;;;;12.98;5.80;;;;;;;;;;5103751;28;20077;-82
2021/09/14 00:44:03;;;;;;;9.32;5.20;;;;;;;;;;5102756;28;20083;-83
2021/09/14 00:46:30;;;;;;;11.40;5.97;;;;;;;;;;5103301;28;20328;-82
2021/09/14 00:49:01;;;;;;;9.32;6.50;;;;;;;;;;5102749;28;20121;-81
2021/09/14 00:51:28;;;;;;;13.05;5.95;;;;;;;;;;5102075;28;20048;-82
2021/09/14 00:53:55;;;;;;;9.65;5.85;;;;;;;;;;5106923;28;20181;-81
2021/09/14 00:56:21;;;;;;;12.57;6.40;;;;;;;;;;5111127;28;20189;-81
2021/09/14 00:58:48;;;;;;;12.68;6.32;;;;;;;;;;5109340;28;20064;-83
2021/09/14 01:01:15;;;;;;;12.85;6.57;;;;;;;;;;5104639;28;20048;-81
2021/09/14 01:03:42;;;;;;;21.95;6.07;;;;;;;;;;5102099;28;20058;-83
2021/09/14 01:06:09;;;;;;;15.20;6.20;;;;;;;;;;5102635;28;20058;-83
2021/09/14 01:08:36;;;;;;;13.63;5.93;;;;;;;;;;5101962;28;20120;-83
2021/09/14 01:11:04;;;;;;;11.80;6.07;;;;;;;;;;5102023;28;20056;-83
2021/09/14 01:13:30;;;;;;;16.35;7.10;;;;;;;;;;5106141;28;20059;-81
2021/09/14 01:16:07;;;;;;;14.07;6.43;;;;;;;;;;5113953;28;20075;-82
2021/09/14 01:18:34;;;;;;;12.00;6.10;;;;;;;;;;5109798;28;20048;-82
2021/09/14 01:21:04;;;;;;;10.52;5.82;;;;;;;;;;5102688;28;20052;-82
2021/09/14 01:23:31;;;;;;;12.10;6.60;;;;;;;;;;5103285;28;20064;-82
2021/09/14 01:25:58;;;;;;;11.07;7.03;;;;;;;;;;5103054;28;20048;-82
2021/09/14 01:28:25;;;;;;;13.57;7.25;;;;;;;;;;5101225;28;20411;-84
2021/09/14 01:30:55;;;;;;;10.18;7.07;;;;;;;;;;5100751;28;20047;-82
2021/09/14 01:33:22;;;;;;;14.18;7.30;;;;;;;;;;5101139;28;20451;-82
2021/09/14 01:35:48;;;;;;;14.93;7.57;;;;;;;;;;5100823;28;20052;-82
2021/09/14 01:38:18;;;;;;;20.08;7.55;;;;;;;;;;5102495;28;20068;-82
2021/09/14 01:40:48;;;;;;;17.35;8.07;;;;;;;;;;5101600;28;20070;-82
2021/09/14 01:43:17;;;;;;;19.63;8.52;;;;;;;;;;5100245;28;20087;-81
2021/09/14 01:45:44;;;;;;;14.18;8.18;;;;;;;;;;5101101;28;20143;-82
2021/09/14 01:48:11;;;;;;;15.95;8.50;;;;;;;;;;5101239;28;20058;-82
2021/09/14 01:50:38;;;;;;;15.02;8.45;;;;;;;;;;5101757;28;20442;-82
2021/09/14 01:53:05;;;;;;;17.85;8.35;;;;;;;;;;5099646;28;20048;-82
2021/09/14 01:55:32;;;;;;;14.30;8.20;;;;;;;;;;5101392;28;20067;-82
2021/09/14 01:57:59;;;;;;;24.17;8.85;;;;;;;;;;5102188;28;20213;-82
2021/09/14 02:00:36;;;;;;;20.20;9.23;;;;;;;;;;5100833;28;20101;-82
2021/09/14 02:56:18;;;;;;;18.35;10.10;;;;;;;;;;5109704;28;20075;-83
2021/09/14 02:58:38;;;;;;;15.30;9.87;;;;;;;;;;5100749;28;20159;-82
2021/09/14 03:01:09;;;;;;;22.17;9.82;;;;;;;;;;5095243;28;20470;-82
2021/09/14 03:03:37;;;;;;;18.67;9.95;;;;;;;;;;5099780;28;20094;-82
2021/09/14 03:06:04;;;;;;;19.45;10.30;;;;;;;;;;5082186;28;20342;-83
2021/09/14 03:08:32;;;;;;;20.95;11.23;;;;;;;;;;5078569;28;20071;-83
2021/09/14 03:11:09;;;;;;;24.85;10.23;;;;;;;;;;5077952;28;20040;-82
2021/09/14 03:13:37;;;;;;;20.33;10.65;;;;;;;;;;5078719;28;20052;-83
2021/09/14 03:16:04;;;;;;;24.95;10.13;;;;;;;;;;5078688;28;20112;-82
2021/09/14 03:18:34;;;;;;;18.63;11.00;;;;;;;;;;5081953;28;20049;-82
2021/09/14 03:21:04;;;;;;;19.20;9.85;;;;;;;;;;5082141;28;20118;-83
2021/09/14 03:23:31;;;;;;;16.92;8.85;;;;;;;;;;5085791;28;20048;-82
2021/09/14 03:25:58;;;;;;;23.83;11.20;;;;;;;;;;5097314;28;20063;-83
2021/09/14 03:28:26;;;;;;;26.67;11.35;;;;;;;;;;5093772;28;20367;-83
2021/09/14 03:30:53;;;;;;;20.27;10.68;;;;;;;;;;5084227;28;20040;-83
2021/09/14 03:33:20;;;;;;;23.58;11.93;;;;;;;;;;5082473;28;20052;-82
2021/09/14 03:35:46;;;;;;;16.10;10.85;;;;;;;;;;5094505;28;20032;-81
2021/09/14 03:38:19;;;;;;;19.90;11.35;;;;;;;;;;5093648;28;20048;-83
2021/09/14 03:40:46;;;;;;;21.80;12.30;;;;;;;;;;5082698;28;20049;-83
2021/09/14 03:43:13;;;;;;;22.80;11.18;;;;;;;;;;5102213;28;20139;-83
2021/09/14 03:45:40;;;;;;;23.95;12.32;;;;;;;;;;5102163;28;20048;-83
2021/09/14 03:48:07;;;;;;;25.50;12.35;;;;;;;;;;5107987;27;20032;-82
2021/09/14 03:50:37;;;;;;;30.85;12.13;;;;;;;;;;5116785;27;20048;-82
2021/09/14 03:53:04;;;;;;;26.98;12.25;;;;;;;;;;5111226;27;20101;-83
2021/09/14 03:55:30;;;;;;;25.38;12.60;;;;;;;;;;5098623;28;20140;-83
2021/09/14 03:58:00;;;;;;;19.00;12.15;;;;;;;;;;5101828;28;20048;-82
2021/09/14 04:00:28;;;;;;;22.23;12.35;;;;;;;;;;5110826;28;20044;-82
2021/09/14 04:03:03;;;;;;;18.95;11.35;;;;;;;;;;5110227;28;20048;-82
2021/09/14 04:10:39;;;;;;;24.58;13.23;;;;;;;;;;5102539;28;20099;-82
2021/09/14 04:13:06;;;;;;;20.42;11.20;;;;;;;;;;5100356;28;20048;-82
2021/09/14 04:15:32;;;;;;;19.60;11.32;;;;;;;;;;5109788;28;20048;-82
2021/09/14 04:18:05;;;;;;;19.15;11.93;;;;;;;;;;5111818;28;20051;-82
2021/09/14 04:20:36;;;;;;;22.65;13.20;;;;;;;;;;5104722;28;20123;-82
2021/09/14 04:23:11;;;;;;;22.27;12.23;;;;;;;;;;5100449;28;20480;-83
2021/09/14 04:25:38;;;;;;;21.83;12.98;;;;;;;;;;5100135;28;20039;-82
2021/09/14 04:28:05;;;;;;;26.45;13.73;;;;;;;;;;5099182;28;20108;-83
2021/09/14 04:30:32;;;;;;;34.40;14.05;;;;;;;;;;5097388;28;20155;-82
2021/09/14 04:33:04;;;;;;;27.35;14.77;;;;;;;;;;5099567;28;20064;-82
2021/09/14 04:35:36;;;;;;;24.60;14.18;;;;;;;;;;5099967;28;20054;-82
2021/09/14 04:38:07;;;;;;;23.42;12.70;;;;;;;;;;5099586;28;20044;-82
2021/09/14 04:40:34;;;;;;;25.65;12.30;;;;;;;;;;5097522;28;20062;-82
2021/09/14 04:43:02;;;;;;;34.10;15.32;;;;;;;;;;5095584;28;20066;-82
2021/09/14 04:45:29;;;;;;;21.65;12.63;;;;;;;;;;5094163;28;20044;-83
2021/09/14 04:47:55;;;;;;;24.77;13.13;;;;;;;;;;5089353;28;20104;-84
2021/09/14 04:50:22;;;;;;;23.00;13.77;;;;;;;;;;5082222;28;20239;-82
2021/09/14 04:52:49;;;;;;;22.70;12.63;;;;;;;;;;5096184;28;20064;-83
2021/09/14 04:55:16;;;;;;;23.38;13.63;;;;;;;;;;5078145;28;20084;-83
2021/09/14 04:57:42;;;;;;;25.38;14.55;;;;;;;;;;5077690;28;20072;-82
2021/09/14 05:00:11;;;;;;;25.25;13.27;;;;;;;;;;5078097;28;20396;-83
2021/09/14 05:02:38;;;;;;;26.92;14.70;;;;;;;;;;5094037;28;20074;-83
2021/09/14 05:05:05;;;;;;;31.08;15.30;;;;;;;;;;5096862;28;20070;-82
2021/09/14 05:07:33;;;;;;;27.25;13.98;;;;;;;;;;5095201;28;20046;-82
2021/09/14 05:09:59;;;;;;;30.55;13.43;;;;;;;;;;5093658;28;20059;-82
2021/09/14 05:12:26;;;;;;;25.38;13.60;;;;;;;;;;5093659;28;20268;-81
2021/09/14 05:14:56;;;;;;;32.28;13.20;;;;;;;;;;5088419;28;20051;-82
2021/09/14 05:17:22;;;;;;;25.25;13.10;;;;;;;;;;5076463;28;20051;-83
2021/09/14 05:19:51;;;;;;;26.85;14.07;;;;;;;;;;5095219;28;20163;-83
2021/09/14 05:22:20;;;;;;;29.70;14.52;;;;;;;;;;5096332;28;20164;-82
2021/09/14 05:24:51;;;;;;;28.35;14.30;;;;;;;;;;5093176;28;20235;-82
2021/09/14 05:27:18;;;;;;;33.03;16.60;;;;;;;;;;5090664;28;20064;-82
2021/09/14 05:29:51;;;;;;;25.58;14.27;;;;;;;;;;5093062;28;20325;-83
2021/09/14 05:32:18;;;;;;;19.55;13.68;;;;;;;;;;5092562;28;20044;-83
2021/09/14 05:34:46;;;;;;;23.10;13.23;;;;;;;;;;5086323;28;20112;-83
2021/09/14 05:37:13;;;;;;;17.67;10.52;;;;;;;;;;5084733;28;20060;-84
2021/09/14 05:39:40;;;;;;;17.45;9.48;;;;;;;;;;5097469;28;20497;-81
2021/09/14 05:42:07;;;;;;;17.95;8.50;;;;;;;;;;5083040;28;20235;-82
2021/09/14 05:44:39;;;;;;;12.98;6.90;;;;;;;;;;5078055;28;20443;-82
2021/09/14 05:47:06;;;;;;;12.20;6.57;;;;;;;;;;5095018;28;20051;-83
2021/09/14 05:49:34;;;;;;;15.75;7.05;;;;;;;;;;5094392;28;20331;-83
2021/09/14 05:52:01;;;;;;;12.20;6.68;;;;;;;;;;5090844;28;20044;-83
2021/09/14 05:54:28;;;;;;;10.98;5.78;;;;;;;;;;5080684;28;20234;-84
2021/09/14 05:56:55;;;;;;;11.52;6.78;;;;;;;;;;5084396;28;20058;-83
2021/09/14 05:59:34;;;;;;;10.48;5.78;;;;;;;;;;5098520;28;20154;-84
2021/09/14 06:02:27;;;;;;;17.98;5.95;;;;;;;;;;5091455;28;20216;-83
2021/09/14 06:05:13;;;;;;;9.50;5.47;;;;;;;;;;5072658;28;20110;-83
2021/09/14 06:07:54;;;;;;;10.57;6.35;;;;;;;;;;5063793;28;20078;-84
2021/09/14 06:10:24;;;;;;;9.82;5.47;;;;;;;;;;5074614;28;20237;-82
2021/09/14 06:13:16;;;;;;;9.10;5.20;;;;;;;;;;5077416;28;20520;-82
2021/09/14 06:15:43;;;;;;;9.65;5.57;;;;;;;;;;5069641;28;20052;-82
2021/09/14 06:18:19;;;;;;;10.85;5.75;;;;;;;;;;5085905;28;20260;-83
2021/09/14 06:20:55;;;;;;;9.15;5.00;;;;;;;;;;5079657;28;20098;-83
2021/09/14 06:23:27;;;;;;;7.88;4.53;;;;;;;;;;5081266;28;20082;-82
2021/09/14 06:25:57;;;;;;;12.57;5.25;;;;;;;;;;5075171;28;20080;-82
2021/09/14 06:28:27;;;;;;;11.77;4.82;;;;;;;;;;5073732;28;20413;-83
2021/09/14 06:30:54;;;;;;;10.07;5.45;;;;;;;;;;5072307;28;20048;-83
2021/09/14 06:33:23;;;;;;;11.50;4.90;;;;;;;;;;5088349;28;20067;-83
2021/09/14 06:35:50;;;;;;;10.10;4.45;;;;;;;;;;5104891;28;20040;-83
2021/09/14 06:38:23;;;;;;;10.82;5.32;;;;;;;;;;5091031;28;20056;-82
2021/09/14 06:40:50;;;;;;;6.78;4.10;;;;;;;;;;5090985;28;20040;-82
2021/09/14 06:43:17;;;;;;;7.70;4.68;;;;;;;;;;5094872;28;20282;-83
2021/09/14 06:45:49;;;;;;;12.18;4.57;;;;;;;;;;5104433;28;20040;-83
2021/09/14 06:48:18;;;;;;;19.95;5.53;;;;;;;;;;5095952;28;20052;-83
2021/09/14 06:50:48;;;;;;;12.77;4.72;;;;;;;;;;5096039;28;20067;-83
2021/09/14 06:53:22;;;;;;;9.00;4.22;;;;;;;;;;5099357;28;20232;-82
2021/09/14 06:55:49;;;;;;;13.32;4.75;;;;;;;;;;5090973;28;20101;-83
2021/09/14 06:58:15;;;;;;;8.02;4.10;;;;;;;;;;5089205;28;20298;-83
2021/09/14 07:00:42;;;;;;;12.00;4.13;;;;;;;;;;5088259;28;20048;-83
2021/09/14 07:03:15;;;;;;;10.70;4.43;;;;;;;;;;5088382;28;20048;-83
2021/09/14 07:05:41;;;;;;;8.43;4.63;;;;;;;;;;5088317;28;20239;-83
2021/09/14 07:08:09;;;;;;;11.50;4.05;;;;;;;;;;5094626;28;20044;-83
2021/09/14 07:10:49;;;;;;;10.02;4.32;;;;;;;;;;5101128;27;20056;-83
2021/09/14 07:13:16;;;;;;;8.20;4.45;;;;;;;;;;5104683;27;20225;-82
2021/09/14 07:15:42;;;;;;;10.05;4.38;;;;;;;;;;5096999;27;20052;-84
2021/09/14 07:18:16;;;;;;;14.38;4.45;;;;;;;;;;5087738;28;20059;-84
2021/09/14 07:20:43;;;;;;;7.90;4.55;;;;;;;;;;5083156;28;20418;-83
2021/09/14 07:23:10;;;;;;;7.82;4.63;;;;;;;;;;5088360;28;20320;-84
2021/09/14 07:25:42;;;;;;;7.78;3.88;;;;;;;;;;5087927;28;20211;-83
2021/09/14 07:28:12;;;;;;;7.70;3.90;;;;;;;;;;5069816;28;20056;-83
2021/09/14 07:30:48;;;;;;;9.10;3.90;;;;;;;;;;5069863;28;20087;-84
2021/09/14 07:33:15;;;;;;;;;;;;;;;;;;5072865;28;20498;-83
2021/09/14 07:35:48;;;;;;;12.30;4.38;;;;;;;;;;5085782;28;20288;-83
2021/09/14 07:38:18;;;;;;;10.27;4.20;;;;;;;;;;5098054;28;20246;-83
2021/09/14 07:40:48;;;;;;;7.05;3.60;;;;;;;;;;5102043;28;20186;-84
2021/09/14 07:43:15;;;;;;;7.72;3.97;;;;;;;;;;5098502;28;20304;-83
2021/09/14 07:45:42;;;;;;;12.75;4.32;;;;;;;;;;5099646;28;20131;-82
2021/09/14 07:48:12;;;;;;;5.85;3.75;;;;;;;;;;5093452;28;20050;-82
2021/09/14 07:50:39;;;;;;;8.75;4.03;;;;;;;;;;5086255;28;20161;-84
2021/09/14 07:53:10;;;;;;;6.43;3.97;;;;;;;;;;5085563;28;20270;-83
2021/09/14 07:55:40;;;;;;;10.98;4.43;;;;;;;;;;5084675;28;20239;-83
2021/09/14 07:58:07;;;;;;;9.18;4.28;;;;;;;;;;5086084;28;20087;-83
2021/09/14 08:00:35;;;;;;;7.35;3.88;;;;;;;;;;5084661;28;20048;-85
2021/09/14 08:03:06;;;;;;;4.35;3.25;;;;;;;;;;5074110;28;20083;-82
2021/09/14 08:05:39;;;;;;;7.70;4.15;;;;;;;;;;5095692;28;20113;-86
2021/09/14 08:08:09;;;;;;;16.02;4.63;;;;;;;;;;5094791;28;20079;-83
2021/09/14 08:10:36;;;;;;;9.13;4.38;;;;;;;;;;5092708;28;20052;-84
2021/09/14 08:13:15;;;;;;;12.93;5.35;;;;;;;;;;5094893;28;20309;-84
2021/09/14 08:15:45;;;;;;;6.88;4.57;;;;;;;;;;5092308;28;20488;-84
2021/09/14 08:18:13;;;;;;;9.63;4.82;;;;;;;;;;5093820;28;20051;-82
2021/09/14 08:20:46;;;;;;;13.00;5.10;;;;;;;;;;5092050;28;20328;-83
2021/09/14 08:23:12;;;;;;;9.02;4.72;;;;;;;;;;5093263;28;20056;-83
2021/09/14 08:25:42;;;;;;;6.65;4.25;;;;;;;;;;5089055;28;20083;-83
2021/09/14 08:28:13;;;;;;;6.90;4.57;;;;;;;;;;5098135;28;20044;-83
2021/09/14 08:30:42;;;;;;;10.88;5.38;;;;;;;;;;5086881;28;20254;-83
2021/09/14 08:33:09;;;;;;;9.88;5.00;;;;;;;;;;5077963;28;20255;-83
2021/09/14 08:35:39;;;;;;;7.28;4.50;;;;;;;;;;5091879;28;20080;-84
2021/09/14 08:38:09;;;;;;;9.50;4.70;;;;;;;;;;5090960;28;20207;-84
2021/09/14 08:40:36;;;;;;;9.35;5.32;;;;;;;;;;5088683;28;20063;-84
2021/09/14 08:43:10;;;;;;;7.28;4.57;;;;;;;;;;5087050;28;20119;-84
2021/09/14 08:45:37;;;;;;;8.30;4.65;;;;;;;;;;5090296;28;20112;-84
2021/09/14 08:48:24;;;;;;;10.05;4.20;;;;;;;;;;5088723;28;20374;-83
2021/09/14 08:50:51;;;;;;;7.10;4.30;;;;;;;;;;5092265;28;20194;-83
2021/09/14 08:53:18;;;;;;;8.88;4.53;;;;;;;;;;5100536;28;20082;-84
2021/09/14 08:55:44;;;;;;;10.07;5.70;;;;;;;;;;5098902;28;20080;-84
2021/09/14 08:58:36;;;;;;;9.77;5.40;;;;;;;;;;5093851;28;20149;-86
2021/09/14 09:01:12;;;;;;;9.32;5.07;;;;;;;;;;5090183;28;20048;-83
2021/09/14 09:03:42;;;;;;;8.48;5.07;;;;;;;;;;5090281;28;20062;-83
2021/09/14 09:06:12;;;;;;;10.35;5.07;;;;;;;;;;5084715;28;20440;-84
2021/09/14 09:08:39;;;;;;;12.10;5.38;;;;;;;;;;5089303;28;20403;-83
2021/09/14 09:11:10;;;;;;;9.45;5.72;;;;;;;;;;5086382;28;20605;-83
2021/09/14 09:13:44;;;;;;;10.18;5.65;;;;;;;;;;5085486;28;20062;-83
2021/09/14 09:16:21;;;;;;;6.70;4.28;;;;;;;;;;5080234;28;20201;-84
2021/09/14 09:18:54;;;;;;;9.38;4.22;;;;;;;;;;5092904;27;20036;-84
2021/09/14 09:21:32;;;;;;;9.75;4.88;;;;;;;;;;5103001;27;20048;-83
2021/09/14 09:24:00;;;;;;;9.25;4.90;;;;;;;;;;5082094;27;20052;-83
2021/09/14 09:26:31;;;;;;;9.85;4.18;;;;;;;;;;5069154;28;20282;-83
2021/09/14 09:29:03;;;;;;;11.23;5.25;;;;;;;;;;5073149;28;20120;-82
2021/09/14 09:31:33;;;;;;;7.15;4.55;;;;;;;;;;5073930;28;20155;-83
2021/09/14 09:34:04;;;;;;;10.52;4.40;;;;;;;;;;5092181;28;20043;-83
2021/09/14 09:36:44;;;;;;;7.30;4.90;;;;;;;;;;5081416;28;20505;-83
2021/09/14 09:39:15;;;;;;;8.85;4.78;;;;;;;;;;5071930;28;20060;-83
2021/09/14 09:41:55;;;;;;;7.85;5.03;;;;;;;;;;5068255;28;20051;-83
2021/09/14 09:44:22;;;;;;;8.85;3.80;;;;;;;;;;5065683;28;20139;-83
2021/09/14 09:46:53;;;;;;;9.48;4.60;;;;;;;;;;5067476;28;20075;-83
2021/09/14 09:49:24;;;;;;;8.27;4.35;;;;;;;;;;5065173;28;20108;-84
2021/09/14 09:51:56;;;;;;;9.88;4.53;;;;;;;;;;5071350;28;20271;-83
2021/09/14 09:54:26;;;;;;;8.90;4.28;;;;;;;;;;5090389;28;20236;-84
2021/09/14 09:56:55;;;;;;;9.45;4.50;;;;;;;;;;5090004;28;20040;-84
2021/09/14 09:59:22;;;;;;;12.60;4.10;;;;;;;;;;5088710;28;20143;-83
2021/09/14 10:02:07;;;;;;;5.63;3.63;;;;;;;;;;5089096;28;20241;-83
2021/09/14 10:04:44;;;;;;;8.10;4.32;;;;;;;;;;5070068;28;20121;-84
2021/09/14 10:07:17;;;;;;;9.88;3.72;;;;;;;;;;5090048;28;20055;-83
2021/09/14 10:09:54;;;;;;;7.93;3.55;;;;;;;;;;5094999;28;20183;-83
2021/09/14 10:12:41;;;;;;;9.02;4.20;;;;;;;;;;5089969;28;20044;-83
2021/09/14 10:15:15;;;;;;;6.50;3.22;;;;;;;;;;5088769;28;20267;-83
2021/09/14 10:17:51;;;;;;;13.98;4.47;;;;;;;;;;5086959;28;20209;-82
2021/09/14 10:20:19;;;;;;;7.18;3.80;;;;;;;;;;5089519;28;20047;-84
2021/09/14 10:22:58;;;;;;;6.47;4.10;;;;;;;;;;5089847;28;20043;-83
2021/09/14 10:25:25;;;;;;;7.75;4.15;;;;;;;;;;5086695;28;20407;-82
2021/09/14 10:27:51;;;;;;;6.63;4.38;;;;;;;;;;5073271;28;20048;-82
2021/09/14 10:30:23;;;;;;;11.30;4.38;;;;;;;;;;5088511;28;20523;-83
2021/09/14 10:32:54;;;;;;;8.60;4.10;;;;;;;;;;5088988;28;20248;-83
2021/09/14 10:35:29;;;;;;;6.03;4.40;;;;;;;;;;5093399;28;20074;-83
2021/09/14 10:38:28;;;;;;;7.00;4.70;;;;;;;;;;5090513;28;20044;-84
2021/09/14 10:41:05;;;;;;;7.38;3.97;;;;;;;;;;5077949;28;20076;-84
2021/09/14 10:43:33;;;;;;;9.52;4.30;;;;;;;;;;5095050;28;20180;-85
2021/09/14 10:46:06;;;;;;;8.10;4.00;;;;;;;;;;5091955;28;20044;-82
2021/09/14 10:49:01;;;;;;;8.85;4.57;;;;;;;;;;5090017;28;20066;-83
2021/09/14 10:51:32;;;;;;;8.77;4.70;;;;;;;;;;5087911;28;20044;-82
2021/09/14 10:54:00;;;;;;;6.75;3.78;;;;;;;;;;5099001;28;20032;-81
2021/09/14 10:56:28;;;;;;;9.60;3.78;;;;;;;;;;5085934;28;20064;-82
2021/09/14 10:58:55;;;;;;;8.32;4.60;;;;;;;;;;5069142;28;20288;-83
2021/09/14 11:01:26;;;;;;;7.32;4.40;;;;;;;;;;5065673;28;20072;-83
2021/09/14 11:04:02;;;;;;;6.28;3.97;;;;;;;;;;5065878;28;20051;-82
2021/09/14 11:06:29;;;;;;;10.85;4.90;;;;;;;;;;5064112;28;20264;-82
2021/09/14 11:08:57;;;;;;;8.75;4.85;;;;;;;;;;5062775;28;20288;-82
2021/09/14 11:11:27;;;;;;;10.30;5.05;;;;;;;;;;5066200;28;20072;-83
2021/09/14 11:13:57;;;;;;;6.05;3.97;;;;;;;;;;5072821;28;20202;-83
2021/09/14 11:16:24;;;;;;;8.27;4.35;;;;;;;;;;5081163;28;20055;-83
2021/09/14 11:18:57;;;;;;;7.10;4.80;;;;;;;;;;5074386;28;20064;-85
2021/09/14 11:21:26;;;;;;;6.05;4.07;;;;;;;;;;5076325;28;20054;-82
2021/09/14 11:23:53;;;;;;;7.60;3.60;;;;;;;;;;5086893;28;20236;-83
2021/09/14 11:26:21;;;;;;;7.88;4.07;;;;;;;;;;5087618;28;20051;-82
2021/09/14 11:28:55;;;;;;;9.38;4.88;;;;;;;;;;5080354;28;20083;-83
2021/09/14 11:31:44;;;;;;;10.07;3.88;;;;;;;;;;5079565;28;20118;-84
2021/09/14 11:34:10;;;;;;;9.25;3.97;;;;;;;;;;5095253;28;20051;-83
2021/09/14 11:36:37;;;;;;;8.45;3.70;;;;;;;;;;5084376;28;20049;-84
2021/09/14 11:39:07;;;;;;;9.45;4.45;;;;;;;;;;5067635;28;20472;-83
2021/09/14 11:41:35;;;;;;;9.02;4.57;;;;;;;;;;5070009;28;20076;-83
2021/09/14 11:44:03;;;;;;;7.40;4.68;;;;;;;;;;5082506;28;20080;-82
2021/09/14 11:46:30;;;;;;;6.85;3.13;;;;;;;;;;5093379;28;20056;-83
2021/09/14 11:49:01;;;;;;;7.05;4.20;;;;;;;;;;5088127;28;20074;-82
2021/09/14 11:52:00;;;;;;;7.80;3.78;;;;;;;;;;5079224;28;20074;-84
2021/09/14 11:54:36;;;;;;;11.73;4.63;;;;;;;;;;5077767;28;20126;-84
2021/09/14 11:57:03;;;;;;;7.53;4.63;;;;;;;;;;5087487;28;20055;-83
2021/09/14 11:59:51;;;;;;;7.70;4.45;;;;;;;;;;5088273;28;20054;-83
2021/09/14 12:02:22;;;;;;;8.70;4.20;;;;;;;;;;5089687;28;20059;-83
2021/09/14 12:04:57;;;;;;;6.90;4.25;;;;;;;;;;5088982;28;20169;-83
2021/09/14 12:07:30;;;;;;;6.57;5.15;;;;;;;;;;5078566;28;20465;-83
2021/09/14 12:10:02;;;;;;;13.35;5.30;;;;;;;;;;5086760;28;20182;-84
2021/09/14 12:12:29;;;;;;;12.93;4.63;;;;;;;;;;5089921;28;20052;-83
2021/09/14 12:14:58;;;;;;;9.85;4.22;;;;;;;;;;5088328;28;20470;-83
2021/09/14 12:17:41;;;;;;;8.02;3.65;;;;;;;;;;5085916;28;20048;-83
2021/09/14 12:20:08;;;;;;;5.78;4.53;;;;;;;;;;5068308;28;20060;-82
2021/09/14 12:22:35;;;;;;;8.02;4.28;;;;;;;;;;5068647;28;20257;-83
2021/09/14 12:25:28;;;;;;;8.13;4.15;;;;;;;;;;5079203;28;20151;-84
2021/09/14 12:28:00;;;;;;;7.40;4.20;;;;;;;;;;5104359;27;20086;-82
2021/09/14 12:30:32;;;;;;;6.10;4.00;;;;;;;;;;5105424;28;20052;-84
2021/09/14 12:33:02;;;;;;;8.02;4.30;;;;;;;;;;5086668;28;20106;-82
2021/09/14 12:35:29;;;;;;;8.68;3.85;;;;;;;;;;5067255;28;20214;-82
2021/09/14 12:38:00;;;;;;;5.35;3.42;;;;;;;;;;5089720;27;20032;-83
2021/09/14 12:40:28;;;;;;;6.45;3.90;;;;;;;;;;5184592;22;20027;-81
2021/09/14 12:42:54;;;;;;;10.15;4.18;;;;;;;;;;5106680;28;20052;-82
2021/09/14 12:45:21;;;;;;;6.03;3.60;;;;;;;;;;5088897;28;20040;-82
2021/09/14 12:47:48;;;;;;;7.63;3.90;;;;;;;;;;5070385;28;20109;-83
2021/09/14 12:50:16;;;;;;;11.45;4.65;;;;;;;;;;5068454;28;20110;-83
2021/09/14 12:52:43;;;;;;;8.77;4.40;;;;;;;;;;5084834;28;20040;-83
2021/09/14 12:55:12;;;;;;;9.38;4.95;;;;;;;;;;5086696;28;20172;-82
2021/09/14 12:57:41;;;;;;;7.85;4.30;;;;;;;;;;5087367;28;20052;-83
2021/09/14 13:00:14;;;;;;;9.32;4.03;;;;;;;;;;5089546;28;20206;-82
2021/09/14 13:02:41;;;;;;;7.53;4.22;;;;;;;;;;5099733;28;20244;-83
2021/09/14 13:05:12;;;;;;;6.53;4.47;;;;;;;;;;5092124;28;20048;-83
2021/09/14 13:07:42;;;;;;;6.90;4.53;;;;;;;;;;5086271;28;20070;-83
2021/09/14 13:10:28;;;;;;;10.60;4.30;;;;;;;;;;5088759;28;20120;-82
2021/09/14 13:18:27;;;;;;;8.15;3.80;;;;;;;;;;5076219;28;20086;-84
2021/09/14 13:21:20;;;;;;;8.30;4.80;;;;;;;;;;5076844;28;20139;-83
2021/09/14 13:23:48;;;;;;;11.88;4.20;;;;;;;;;;5074620;28;20055;-83
2021/09/14 13:26:20;;;;;;;7.22;4.40;;;;;;;;;;5084850;28;20052;-82
2021/09/14 13:29:12;;;;;;;9.38;4.03;;;;;;;;;;5083777;28;20048;-82
2021/09/14 13:31:43;;;;;;;5.97;4.70;;;;;;;;;;5066780;28;20258;-82
2021/09/14 13:34:12;;;;;;;6.88;4.07;;;;;;;;;;5073065;28;20136;-83
2021/09/14 13:36:41;;;;;;;11.18;4.20;;;;;;;;;;5059678;28;20137;-83
2021/09/14 13:39:08;;;;;;;8.57;4.22;;;;;;;;;;5070140;28;20297;-83
2021/09/14 13:41:42;;;;;;;11.45;4.28;;;;;;;;;;5085018;28;20094;-82
2021/09/14 13:47:15;;;;;;;7.65;4.47;;;;;;;;;;5037214;28;20052;-82
2021/09/14 13:49:41;;;;;;;11.50;4.45;;;;;;;;;;5080444;28;20084;-83
2021/09/14 13:52:08;;;;;;;8.88;4.25;;;;;;;;;;5084729;28;20052;-83
2021/09/14 13:54:38;;;;;;;9.38;4.63;;;;;;;;;;5102274;28;20141;-83
2021/09/14 13:57:06;;;;;;;11.40;4.20;;;;;;;;;;5084439;28;20052;-83
2021/09/14 13:59:33;;;;;;;6.80;4.00;;;;;;;;;;5084528;28;20048;-84
2021/09/14 14:02:01;;;;;;;6.60;3.58;;;;;;;;;;5062988;28;20273;-83
2021/09/14 14:04:30;;;;;;;7.70;3.75;;;;;;;;;;5064642;28;20140;-82
2021/09/14 14:06:57;;;;;;;4.55;3.30;;;;;;;;;;5057201;28;20315;-82
2021/09/14 14:09:28;;;;;;;5.75;3.92;;;;;;;;;;5096048;28;20044;-83
2021/09/14 14:11:58;;;;;;;10.57;4.18;;;;;;;;;;5092368;28;20040;-82
2021/09/14 14:14:30;;;;;;;8.23;3.63;;;;;;;;;;5101062;28;20036;-83
2021/09/14 14:17:10;;;;;;;8.13;3.88;;;;;;;;;;5084735;28;20059;-82
2021/09/14 14:19:43;;;;;;;7.72;3.88;;;;;;;;;;5075176;28;20048;-82
2021/09/14 14:22:14;;;;;;;8.77;3.80;;;;;;;;;;5066352;28;20391;-83
2021/09/14 14:24:41;;;;;;;4.05;3.55;;;;;;;;;;5070330;28;20044;-83
2021/09/14 14:27:23;;;;;;;8.13;4.53;;;;;;;;;;5083773;28;20341;-83
2021/09/14 14:29:49;;;;;;;7.35;3.92;;;;;;;;;;5087623;28;20408;-83
2021/09/14 14:32:18;;;;;;;6.97;3.35;;;;;;;;;;5086408;28;20063;-82
2021/09/14 14:34:45;;;;;;;7.35;4.38;;;;;;;;;;5084775;28;20151;-83
2021/09/14 14:37:12;;;;;;;9.07;4.35;;;;;;;;;;5081350;28;20071;-83
2021/09/14 14:39:42;;;;;;;5.07;3.85;;;;;;;;;;5072105;28;20048;-83
2021/09/14 14:42:10;;;;;;;7.05;4.00;;;;;;;;;;5066548;28;20061;-82
2021/09/14 14:44:37;;;;;;;10.23;4.75;;;;;;;;;;5070605;28;20056;-84
2021/09/14 14:47:04;;;;;;;6.68;4.05;;;;;;;;;;5078496;28;20047;-83
2021/09/14 14:49:31;;;;;;;8.05;3.60;;;;;;;;;;5064814;28;20226;-82
2021/09/14 14:51:58;;;;;;;5.13;3.75;;;;;;;;;;5059268;28;20060;-83
2021/09/14 14:54:27;;;;;;;9.57;4.13;;;;;;;;;;5076381;28;20110;-82
2021/09/14 14:57:03;;;;;;;8.85;4.10;;;;;;;;;;5059366;28;20064;-83
2021/09/14 14:59:32;;;;;;;9.45;4.00;;;;;;;;;;5082938;28;20048;-82
2021/09/14 15:02:00;;;;;;;5.65;4.13;;;;;;;;;;5082009;28;20143;-83
2021/09/14 15:04:27;;;;;;;5.90;3.78;;;;;;;;;;5070692;28;20405;-83
2021/09/14 15:07:00;;;;;;;7.88;3.50;;;;;;;;;;5081946;28;20045;-83
2021/09/14 15:09:27;;;;;;;4.65;3.35;;;;;;;;;;5074778;28;20052;-82
2021/09/14 15:11:54;;;;;;;6.68;3.97;;;;;;;;;;5071700;28;20040;-83
2021/09/14 15:14:27;;;;;;;9.40;4.35;;;;;;;;;;5064753;28;20048;-83
2021/09/14 15:16:54;;;;;;;7.65;4.43;;;;;;;;;;5064600;28;20539;-82
2021/09/14 15:19:20;;;;;;;5.60;4.05;;;;;;;;;;5079341;28;20231;-82
2021/09/14 15:22:00;;;;;;;9.63;4.15;;;;;;;;;;5097427;28;20044;-82
2021/09/14 15:24:27;;;;;;;8.57;3.95;;;;;;;;;;5080475;28;20079;-83
2021/09/14 15:27:00;;;;;;;7.65;4.10;;;;;;;;;;5085294;28;20047;-83
2021/09/14 15:29:33;;;;;;;;;;;;;;;;;;5100045;28;20087;-84
2021/09/14 15:32:00;;;;;;;8.20;4.63;;;;;;;;;;5103204;27;19928;-83
2021/09/14 15:34:38;;;;;;;6.40;3.97;;;;;;;;;;5093304;28;20068;-83
2021/09/14 15:37:05;;;;;;;4.53;4.00;;;;;;;;;;5076907;28;20177;-83
2021/09/14 15:39:35;;;;;;;8.95;4.10;;;;;;;;;;5077217;28;20682;-83
2021/09/14 15:42:02;;;;;;;9.45;4.00;;;;;;;;;;5079533;28;20048;-83
2021/09/14 15:44:32;;;;;;;13.00;3.95;;;;;;;;;;5090206;28;20089;-83
2021/09/14 15:47:02;;;;;;;9.35;4.25;;;;;;;;;;5109798;28;20258;-82
2021/09/14 15:49:29;;;;;;;5.43;3.92;;;;;;;;;;5107580;27;20059;-83
2021/09/14 15:52:02;;;;;;;8.10;4.22;;;;;;;;;;5106827;28;20079;-83
2021/09/14 15:54:32;;;;;;;7.15;4.03;;;;;;;;;;5107248;28;20065;-83
2021/09/14 15:57:03;;;;;;;6.10;3.28;;;;;;;;;;5103158;28;20059;-83
2021/09/14 15:59:30;;;;;;;8.32;3.95;;;;;;;;;;5065569;28;20262;-82
2021/09/14 16:02:03;;;;;;;8.45;4.22;;;;;;;;;;5068786;28;20129;-83